Time;durP1;ratioP1;P1;durP2;ratioP2;P2;SDS_P1;SDS_P2;PMS_P1;PMS_P2;Temp;Humidity;BMP_temperature;BMP_pressure;BME280_temperature;BME280_humidity;BME280_pressure;Samples;Min_cycle;Max_cycle;Signal;HPM_P1;HPM_P2
2023/09/25 00:01:04;;;;;;;1.92;0.70;;;12.60;99.90;;;;;;4936583;29;20526;-87
2023/09/25 00:03:29;;;;;;;3.95;0.70;;;12.60;99.90;;;;;;4938463;29;20099;-86
2023/09/25 00:05:55;;;;;;;3.55;0.80;;;12.60;99.90;;;;;;4952056;29;20452;-87
2023/09/25 00:08:20;;;;;;;2.42;0.75;;;12.60;99.90;;;;;;4935471;29;20128;-88
2023/09/25 00:10:46;;;;;;;4.82;1.38;;;12.60;99.90;;;;;;4936456;29;20035;-88
2023/09/25 00:13:12;;;;;;;2.00;0.80;;;12.60;99.90;;;;;;4940304;29;20023;-87
2023/09/25 00:15:46;;;;;;;4.57;0.70;;;12.50;99.90;;;;;;4938129;29;20036;-88
2023/09/25 00:18:13;;;;;;;2.92;0.80;;;12.50;99.90;;;;;;4936312;29;20035;-88
2023/09/25 00:20:39;;;;;;;2.10;0.50;;;12.50;99.90;;;;;;4935651;29;20077;-87
2023/09/25 00:23:05;;;;;;;2.28;0.50;;;12.50;99.90;;;;;;4937528;29;20103;-87
2023/09/25 00:25:31;;;;;;;2.15;0.60;;;12.50;99.90;;;;;;4949926;29;20028;-87
2023/09/25 00:27:57;;;;;;;3.25;0.70;;;12.50;99.90;;;;;;4939637;28;20028;-87
2023/09/25 00:30:23;;;;;;;3.85;0.68;;;12.50;99.90;;;;;;4936443;28;20042;-87
2023/09/25 00:32:50;;;;;;;2.20;0.70;;;12.50;99.90;;;;;;4927603;29;20535;-86
2023/09/25 00:35:16;;;;;;;3.83;0.65;;;12.40;99.90;;;;;;4951328;28;20448;-87
2023/09/25 00:37:42;;;;;;;2.03;0.80;;;12.40;99.90;;;;;;4949715;29;20059;-87
2023/09/25 00:40:13;;;;;;;2.10;0.50;;;12.40;99.90;;;;;;4933570;29;20496;-87
2023/09/25 00:42:40;;;;;;;4.57;0.95;;;12.40;99.90;;;;;;4949158;29;20024;-87
2023/09/25 00:45:06;;;;;;;2.97;0.90;;;12.30;99.90;;;;;;4948141;28;20024;-87
2023/09/25 00:47:32;;;;;;;4.32;0.88;;;12.30;99.90;;;;;;4933490;29;20035;-87
2023/09/25 00:49:57;;;;;;;3.38;0.88;;;12.30;99.90;;;;;;4937034;29;20102;-87
2023/09/25 00:52:23;;;;;;;3.28;0.70;;;12.30;99.90;;;;;;4936679;29;20504;-87
2023/09/25 00:54:49;;;;;;;1.65;0.60;;;12.20;99.90;;;;;;4936285;29;20027;-87
2023/09/25 00:57:15;;;;;;;3.05;1.20;;;12.20;99.90;;;;;;4949441;29;20043;-87
2023/09/25 00:59:40;;;;;;;4.90;0.93;;;12.20;99.90;;;;;;4947396;28;20491;-87
2023/09/25 01:02:06;;;;;;;2.22;0.80;;;12.20;99.90;;;;;;4950070;29;20506;-87
2023/09/25 01:04:32;;;;;;;2.13;0.70;;;12.20;99.90;;;;;;4936352;29;20032;-87
2023/09/25 01:06:58;;;;;;;4.78;0.82;;;12.20;99.90;;;;;;4936141;29;20111;-87
2023/09/25 01:09:23;;;;;;;2.33;0.90;;;12.20;99.90;;;;;;4932649;29;20032;-87
2023/09/25 01:11:49;;;;;;;2.20;0.70;;;12.20;99.90;;;;;;4935196;29;20502;-88
2023/09/25 01:14:14;;;;;;;2.45;0.80;;;12.20;99.90;;;;;;4930752;29;20043;-87
2023/09/25 01:16:41;;;;;;;2.20;0.80;;;12.10;99.90;;;;;;4935640;29;20039;-88
2023/09/25 01:19:06;;;;;;;3.38;0.77;;;12.10;99.90;;;;;;4935546;29;20028;-88
2023/09/25 01:21:33;;;;;;;3.03;0.98;;;12.10;99.90;;;;;;4936094;29;20040;-88
2023/09/25 01:23:59;;;;;;;3.50;0.80;;;12.10;99.90;;;;;;4948514;29;20503;-87
2023/09/25 01:26:24;;;;;;;2.22;1.10;;;12.00;99.90;;;;;;4934356;29;20032;-87
2023/09/25 01:28:50;;;;;;;2.65;1.00;;;12.00;99.90;;;;;;4935678;29;20031;-87
2023/09/25 01:31:15;;;;;;;2.35;1.00;;;12.00;99.90;;;;;;4935290;29;20416;-88
2023/09/25 01:33:41;;;;;;;2.75;1.00;;;12.00;99.90;;;;;;4939168;28;20028;-87
2023/09/25 01:36:06;;;;;;;3.08;1.00;;;12.00;99.90;;;;;;4935094;29;20034;-87
2023/09/25 01:38:32;;;;;;;2.22;0.75;;;12.00;99.90;;;;;;4935008;29;20376;-87
2023/09/25 01:40:57;;;;;;;2.70;0.80;;;12.00;99.90;;;;;;4934190;29;20090;-87
2023/09/25 01:43:23;;;;;;;2.53;1.00;;;11.90;99.90;;;;;;4934870;29;20713;-87
2023/09/25 01:45:48;;;;;;;4.07;0.80;;;11.90;99.90;;;;;;4935247;29;20126;-87
2023/09/25 01:48:14;;;;;;;3.08;1.02;;;11.90;99.90;;;;;;4935240;29;20027;-87
2023/09/25 01:50:39;;;;;;;4.13;0.77;;;11.90;99.90;;;;;;4934460;29;20031;-87
2023/09/25 01:53:05;;;;;;;3.55;0.82;;;11.90;99.90;;;;;;4935372;29;20440;-88
2023/09/25 01:55:35;;;;;;;3.42;1.00;;;11.90;99.90;;;;;;4935667;29;20024;-88
2023/09/25 01:58:01;;;;;;;3.05;0.80;;;11.90;99.90;;;;;;4934639;29;20027;-87
2023/09/25 02:00:27;;;;;;;3.63;0.95;;;11.90;99.90;;;;;;4933831;29;20059;-88
2023/09/25 02:02:52;;;;;;;3.17;0.85;;;11.90;99.90;;;;;;4934552;29;20055;-87
2023/09/25 02:05:18;;;;;;;2.10;0.80;;;11.90;99.90;;;;;;4935199;29;20074;-87
2023/09/25 02:07:43;;;;;;;2.40;0.90;;;11.90;99.90;;;;;;4949478;29;20035;-87
2023/09/25 02:10:09;;;;;;;4.78;0.95;;;11.80;99.90;;;;;;4933909;29;20024;-87
2023/09/25 02:12:35;;;;;;;4.57;1.20;;;11.80;99.90;;;;;;4935194;29;20035;-87
2023/09/25 02:15:03;;;;;;;3.85;0.88;;;11.70;99.90;;;;;;4935014;28;20031;-87
2023/09/25 02:17:29;;;;;;;4.57;1.40;;;11.80;99.90;;;;;;4935395;29;20500;-88
2023/09/25 02:19:56;;;;;;;2.72;0.80;;;11.80;99.90;;;;;;4932550;29;20046;-87
2023/09/25 02:22:22;;;;;;;3.05;0.68;;;11.70;99.90;;;;;;4962098;28;20030;-87
2023/09/25 02:24:47;;;;;;;4.53;1.23;;;11.70;99.90;;;;;;4934101;29;20035;-88
2023/09/25 02:27:13;;;;;;;2.75;1.08;;;11.70;99.90;;;;;;4934871;29;20028;-87
2023/09/25 02:29:39;;;;;;;1.83;0.80;;;11.70;99.90;;;;;;4933920;29;20054;-87
2023/09/25 02:32:04;;;;;;;4.38;0.73;;;11.70;99.90;;;;;;4934208;29;20071;-88
2023/09/25 02:34:30;;;;;;;5.00;0.70;;;11.70;99.90;;;;;;4934826;29;20395;-88
2023/09/25 02:36:55;;;;;;;3.90;0.98;;;11.70;99.90;;;;;;4934001;29;20087;-87
2023/09/25 02:39:21;;;;;;;1.85;0.82;;;11.60;99.90;;;;;;4933658;29;20078;-87
2023/09/25 02:41:46;;;;;;;2.88;0.85;;;11.60;99.90;;;;;;4935609;29;20069;-87
2023/09/25 02:44:12;;;;;;;2.15;0.90;;;11.60;99.90;;;;;;4933893;28;20031;-87
2023/09/25 02:46:38;;;;;;;5.35;1.08;;;11.60;99.90;;;;;;4934367;29;20441;-87
2023/09/25 02:49:04;;;;;;;4.35;1.27;;;11.60;99.90;;;;;;4934135;29;20028;-87
2023/09/25 02:51:29;;;;;;;3.05;0.88;;;11.60;99.90;;;;;;4934461;29;20028;-87
2023/09/25 02:53:55;;;;;;;3.83;0.90;;;11.50;99.90;;;;;;4933645;28;20484;-88
2023/09/25 02:56:20;;;;;;;2.45;1.00;;;11.50;99.90;;;;;;4933757;29;20030;-87
2023/09/25 02:58:46;;;;;;;3.33;1.08;;;11.50;99.90;;;;;;4933487;29;20094;-87
2023/09/25 03:01:12;;;;;;;3.42;0.82;;;11.50;99.90;;;;;;4933587;29;20046;-87
2023/09/25 03:03:39;;;;;;;2.83;0.90;;;11.50;99.90;;;;;;4934534;29;20432;-88
2023/09/25 03:06:04;;;;;;;4.75;1.67;;;11.50;99.90;;;;;;4933423;29;20035;-88
2023/09/25 03:08:30;;;;;;;2.33;1.00;;;11.50;99.90;;;;;;4933314;29;20031;-87
2023/09/25 03:10:56;;;;;;;2.85;1.10;;;11.50;99.90;;;;;;4933422;28;20028;-87
2023/09/25 03:13:21;;;;;;;3.17;1.17;;;11.50;99.90;;;;;;4934211;29;20038;-88
2023/09/25 03:15:47;;;;;;;2.60;0.95;;;11.40;99.90;;;;;;4933476;29;20023;-87
2023/09/25 03:18:12;;;;;;;2.70;1.17;;;11.40;99.90;;;;;;4923919;29;20059;-87
2023/09/25 03:20:38;;;;;;;2.85;1.00;;;11.40;99.90;;;;;;4931941;29;20437;-88
2023/09/25 03:23:04;;;;;;;3.47;1.10;;;11.40;99.90;;;;;;4949086;28;20034;-87
2023/09/25 03:25:35;;;;;;;4.80;1.27;;;11.40;99.90;;;;;;4934846;29;20058;-87
2023/09/25 03:28:00;;;;;;;4.80;1.10;;;11.40;99.90;;;;;;4933189;29;20118;-88
2023/09/25 03:30:26;;;;;;;2.78;1.00;;;11.40;99.90;;;;;;4940694;29;20159;-87
2023/09/25 03:32:54;;;;;;;3.95;1.17;;;11.40;99.90;;;;;;4947888;29;20024;-87
2023/09/25 03:35:20;;;;;;;4.20;1.17;;;11.50;99.90;;;;;;4955636;29;20035;-87
2023/09/25 03:37:46;;;;;;;1.70;0.80;;;11.40;99.90;;;;;;4955571;29;20023;-88
2023/09/25 03:40:12;;;;;;;6.72;0.80;;;11.50;99.90;;;;;;4941070;29;20872;-87
2023/09/25 03:42:38;;;;;;;2.70;0.93;;;11.50;99.90;;;;;;4940868;29;20609;-88
2023/09/25 03:45:04;;;;;;;2.13;0.93;;;11.50;99.90;;;;;;4939039;29;20043;-87
2023/09/25 03:47:30;;;;;;;2.63;0.98;;;11.50;99.90;;;;;;4939231;29;20020;-87
2023/09/25 03:49:55;;;;;;;3.38;0.90;;;11.50;99.90;;;;;;4938567;29;20499;-87
2023/09/25 03:52:21;;;;;;;2.95;0.80;;;11.40;99.90;;;;;;4938709;29;20047;-87
2023/09/25 03:54:46;;;;;;;2.60;0.98;;;11.40;99.90;;;;;;4936482;29;20030;-87
2023/09/25 03:57:12;;;;;;;5.45;1.05;;;11.40;99.90;;;;;;4943913;28;20432;-88
2023/09/25 03:59:37;;;;;;;3.13;0.90;;;11.40;99.90;;;;;;4939082;29;20196;-87
2023/09/25 04:02:03;;;;;;;2.22;0.85;;;11.40;99.90;;;;;;4930435;29;20028;-87
2023/09/25 04:04:28;;;;;;;5.63;1.00;;;11.40;99.90;;;;;;4939035;29;20398;-87
2023/09/25 04:06:54;;;;;;;2.63;0.80;;;11.40;99.90;;;;;;4938937;29;20031;-87
2023/09/25 04:09:20;;;;;;;5.18;1.10;;;11.40;99.90;;;;;;4939322;29;20451;-86
2023/09/25 04:11:46;;;;;;;3.42;1.20;;;11.40;99.90;;;;;;4955555;29;20039;-87
2023/09/25 04:14:11;;;;;;;3.65;1.15;;;11.40;99.90;;;;;;4938992;29;20024;-87
2023/09/25 04:16:38;;;;;;;4.13;1.00;;;11.40;99.90;;;;;;4927439;29;20047;-88
2023/09/25 04:19:04;;;;;;;6.45;0.80;;;11.40;99.90;;;;;;4939762;29;20114;-88
2023/09/25 04:21:31;;;;;;;2.78;0.90;;;11.40;99.90;;;;;;4939505;29;20123;-87
2023/09/25 04:23:57;;;;;;;2.67;1.15;;;11.30;99.90;;;;;;4938003;29;20031;-87
2023/09/25 04:26:23;;;;;;;4.78;0.80;;;11.30;99.90;;;;;;4939836;29;20123;-87
2023/09/25 04:28:49;;;;;;;3.72;1.00;;;11.40;99.90;;;;;;4942949;29;20435;-87
2023/09/25 04:31:14;;;;;;;4.43;1.30;;;11.30;99.90;;;;;;4945796;28;20122;-88
2023/09/25 04:33:40;;;;;;;1.75;0.85;;;11.30;99.90;;;;;;4939771;29;20388;-88
2023/09/25 04:36:10;;;;;;;3.83;1.15;;;11.40;99.90;;;;;;4927542;29;20030;-87
2023/09/25 04:38:36;;;;;;;3.75;0.90;;;11.30;99.90;;;;;;4935591;29;20032;-88
2023/09/25 04:41:01;;;;;;;2.83;1.00;;;11.30;99.90;;;;;;4936464;28;20042;-88
2023/09/25 04:43:27;;;;;;;2.63;0.88;;;11.30;99.90;;;;;;4936175;28;20035;-87
2023/09/25 04:45:52;;;;;;;3.65;1.23;;;11.30;99.90;;;;;;4936380;29;20035;-87
2023/09/25 04:48:29;;;;;;;3.38;1.10;;;11.30;99.90;;;;;;4935537;29;20020;-87
2023/09/25 04:50:56;;;;;;;4.38;1.15;;;11.30;99.90;;;;;;4936146;29;20059;-87
2023/09/25 04:53:21;;;;;;;3.03;0.98;;;11.20;99.90;;;;;;4933394;29;20111;-87
2023/09/25 04:55:47;;;;;;;3.22;1.10;;;11.30;99.90;;;;;;4926864;29;20611;-88
2023/09/25 04:58:12;;;;;;;5.38;1.10;;;11.20;99.90;;;;;;4944521;29;20035;-87
2023/09/25 05:00:38;;;;;;;3.78;1.13;;;11.20;99.90;;;;;;4936588;29;20039;-88
2023/09/25 05:03:03;;;;;;;3.40;1.20;;;11.20;99.90;;;;;;4958704;28;20562;-87
2023/09/25 05:05:31;;;;;;;4.05;1.23;;;11.20;99.90;;;;;;4950614;28;20032;-87
2023/09/25 05:07:57;;;;;;;3.08;1.08;;;11.20;99.90;;;;;;4936627;28;20048;-88
2023/09/25 05:10:25;;;;;;;3.72;1.10;;;11.20;99.90;;;;;;4951787;29;20040;-87
2023/09/25 05:12:51;;;;;;;2.67;1.00;;;11.30;99.90;;;;;;4935389;29;20059;-87
2023/09/25 05:15:17;;;;;;;3.47;1.20;;;11.10;99.90;;;;;;4935770;29;20035;-87
2023/09/25 05:17:44;;;;;;;4.00;1.13;;;11.10;99.90;;;;;;4951468;29;20048;-86
2023/09/25 05:20:12;;;;;;;9.02;1.38;;;11.10;99.90;;;;;;4932279;29;20043;-85
2023/09/25 05:22:38;;;;;;;3.38;1.00;;;11.10;99.90;;;;;;4931031;29;20027;-86
2023/09/25 05:25:07;;;;;;;4.07;1.10;;;11.10;99.90;;;;;;4952104;29;20380;-86
2023/09/25 05:27:34;;;;;;;3.15;1.23;;;11.10;99.90;;;;;;4952534;29;20024;-87
2023/09/25 05:30:00;;;;;;;2.92;1.02;;;11.00;99.90;;;;;;4951668;29;20032;-87
2023/09/25 05:32:25;;;;;;;5.93;1.17;;;11.00;99.90;;;;;;4920193;29;20059;-87
2023/09/25 05:34:51;;;;;;;4.82;1.70;;;11.00;99.90;;;;;;4945879;28;20780;-87
2023/09/25 05:37:16;;;;;;;3.45;1.20;;;11.00;99.90;;;;;;4935103;29;20038;-87
2023/09/25 05:39:41;;;;;;;3.30;1.10;;;11.00;99.90;;;;;;4936120;29;20031;-87
2023/09/25 05:42:07;;;;;;;3.83;1.40;;;11.00;99.90;;;;;;4930034;29;20042;-88
2023/09/25 05:44:32;;;;;;;3.05;1.27;;;11.00;99.90;;;;;;4931845;29;20028;-87
2023/09/25 05:46:58;;;;;;;4.63;1.38;;;11.00;99.90;;;;;;4934878;29;20039;-88
2023/09/25 05:49:25;;;;;;;2.88;1.38;;;11.00;99.90;;;;;;4934733;29;20506;-88
2023/09/25 05:51:53;;;;;;;2.80;1.10;;;11.00;99.90;;;;;;4934754;29;20028;-88
2023/09/25 05:54:21;;;;;;;3.25;1.10;;;11.10;99.90;;;;;;4927825;29;20024;-86
2023/09/25 05:56:48;;;;;;;4.10;1.10;;;11.10;99.90;;;;;;4929804;29;20024;-87
2023/09/25 05:59:14;;;;;;;3.90;1.15;;;11.10;99.90;;;;;;4926173;29;20028;-87
2023/09/25 06:01:40;;;;;;;4.15;1.30;;;11.20;99.90;;;;;;4945912;28;20051;-86
2023/09/25 06:04:05;;;;;;;2.50;1.08;;;11.20;99.90;;;;;;4936377;29;20039;-87
2023/09/25 06:06:33;;;;;;;3.85;1.40;;;11.20;99.90;;;;;;4945142;29;20035;-87
2023/09/25 06:08:59;;;;;;;4.00;0.82;;;11.40;99.90;;;;;;4925615;29;20377;-87
2023/09/25 06:11:24;;;;;;;3.08;1.10;;;11.30;99.90;;;;;;4933108;29;20094;-88
2023/09/25 06:13:50;;;;;;;2.78;1.42;;;11.40;99.90;;;;;;4932874;29;20094;-87
2023/09/25 06:16:16;;;;;;;3.10;1.00;;;11.40;99.90;;;;;;4933127;29;20396;-87
2023/09/25 06:18:42;;;;;;;3.35;1.00;;;11.50;99.90;;;;;;4932166;29;22297;-86
2023/09/25 06:21:12;;;;;;;2.63;1.00;;;11.50;99.90;;;;;;4926707;29;20488;-86
2023/09/25 06:23:39;;;;;;;7.35;1.20;;;11.50;99.90;;;;;;4946158;29;20024;-87
2023/09/25 06:26:06;;;;;;;4.38;1.20;;;11.60;99.90;;;;;;4928315;29;20403;-87
2023/09/25 06:28:32;;;;;;;3.75;1.30;;;11.60;99.90;;;;;;4931777;29;20030;-88
2023/09/25 06:30:58;;;;;;;3.67;0.98;;;11.70;99.90;;;;;;4929254;29;20400;-86
2023/09/25 06:33:23;;;;;;;7.90;1.35;;;11.80;99.90;;;;;;4933862;29;20031;-87
2023/09/25 06:35:49;;;;;;;3.20;1.00;;;11.90;99.90;;;;;;4933017;29;20481;-87
2023/09/25 06:38:16;;;;;;;2.85;1.38;;;11.90;99.90;;;;;;4934450;29;20050;-87
2023/09/25 06:40:45;;;;;;;3.92;1.42;;;12.00;99.90;;;;;;4932421;29;20210;-87
2023/09/25 06:43:12;;;;;;;4.25;1.30;;;12.10;99.90;;;;;;4943444;28;20088;-87
2023/09/25 06:45:38;;;;;;;4.78;1.75;;;12.20;99.90;;;;;;4936384;29;20027;-85
2023/09/25 06:48:04;;;;;;;2.47;1.17;;;12.30;99.90;;;;;;4930643;28;20551;-87
2023/09/25 06:50:30;;;;;;;2.72;1.42;;;12.40;99.90;;;;;;4933879;29;20036;-87
2023/09/25 06:52:56;;;;;;;6.93;1.70;;;12.50;99.90;;;;;;4932387;29;20156;-87
2023/09/25 06:55:22;;;;;;;3.40;1.30;;;12.70;99.90;;;;;;4950298;29;20036;-87
2023/09/25 06:57:47;;;;;;;5.05;1.23;;;12.80;99.90;;;;;;4935052;29;20387;-87
2023/09/25 07:00:13;;;;;;;3.58;1.08;;;12.90;99.90;;;;;;4928646;29;20058;-87
2023/09/25 07:02:39;;;;;;;5.80;2.17;;;13.00;99.90;;;;;;4928262;29;20062;-87
2023/09/25 07:05:05;;;;;;;3.38;1.60;;;13.20;99.90;;;;;;4929909;28;20060;-87
2023/09/25 07:07:30;;;;;;;4.22;1.85;;;13.30;99.90;;;;;;4950319;29;20357;-87
2023/09/25 07:09:57;;;;;;;4.65;1.70;;;13.40;99.90;;;;;;4936258;28;20086;-88
2023/09/25 07:12:22;;;;;;;3.45;1.17;;;13.50;99.90;;;;;;4934726;29;20031;-87
2023/09/25 07:14:51;;;;;;;2.72;1.10;;;13.70;99.90;;;;;;4931060;29;20395;-86
2023/09/25 07:17:17;;;;;;;3.53;1.33;;;13.80;99.90;;;;;;4933101;28;20523;-88
2023/09/25 07:19:43;;;;;;;3.45;1.35;;;13.80;99.90;;;;;;4928396;29;20039;-87
2023/09/25 07:22:08;;;;;;;4.18;1.10;;;13.90;99.90;;;;;;4928062;29;20036;-88
2023/09/25 07:24:34;;;;;;;3.58;1.60;;;14.10;99.90;;;;;;4924400;29;20028;-86
2023/09/25 07:26:59;;;;;;;2.75;1.10;;;14.20;99.90;;;;;;4933165;29;20032;-88
2023/09/25 07:29:25;;;;;;;4.20;1.20;;;14.20;99.90;;;;;;4927022;29;20087;-87
2023/09/25 07:31:51;;;;;;;2.33;1.10;;;14.30;99.90;;;;;;4926901;29;20043;-86
2023/09/25 07:34:17;;;;;;;5.95;1.33;;;14.50;99.90;;;;;;4930685;29;20079;-87
2023/09/25 07:36:42;;;;;;;3.22;1.08;;;14.50;99.90;;;;;;4924947;29;20468;-86
2023/09/25 07:39:13;;;;;;;3.72;1.50;;;14.60;99.90;;;;;;4934238;29;20028;-88
2023/09/25 07:41:40;;;;;;;4.32;1.13;;;14.70;99.90;;;;;;4948485;28;20036;-88
2023/09/25 07:44:11;;;;;;;2.97;1.15;;;14.80;99.90;;;;;;4932248;29;20074;-88
2023/09/25 07:46:37;;;;;;;2.43;0.83;;;14.80;99.90;;;;;;4933606;29;20035;-88
2023/09/25 07:49:03;;;;;;;4.00;1.40;;;14.90;99.90;;;;;;4933384;29;20050;-88
2023/09/25 07:51:29;;;;;;;3.72;1.17;;;15.00;99.90;;;;;;4932730;29;20027;-88
2023/09/25 07:53:58;;;;;;;3.17;1.30;;;15.20;99.90;;;;;;4933400;29;20036;-86
2023/09/25 07:56:27;;;;;;;2.85;1.15;;;15.30;99.90;;;;;;4930710;29;20058;-86
2023/09/25 07:58:55;;;;;;;4.25;1.30;;;15.40;99.90;;;;;;4928355;29;20155;-88
2023/09/25 08:01:22;;;;;;;8.05;1.20;;;15.50;99.90;;;;;;4923422;29;20122;-87
2023/09/25 08:03:51;;;;;;;3.47;1.30;;;15.50;99.90;;;;;;4949167;28;20472;-87
2023/09/25 08:06:19;;;;;;;2.92;1.27;;;15.60;99.90;;;;;;4943047;28;20032;-87
2023/09/25 08:08:47;;;;;;;3.58;1.33;;;15.70;99.90;;;;;;4943413;29;20150;-87
2023/09/25 08:11:17;;;;;;;4.43;1.25;;;15.80;99.90;;;;;;4944251;28;20038;-87
2023/09/25 08:13:42;;;;;;;4.57;1.05;;;15.90;99.90;;;;;;4926350;29;20024;-88
2023/09/25 08:16:08;;;;;;;5.28;1.20;;;16.00;99.90;;;;;;4948868;28;20055;-85
2023/09/25 08:18:34;;;;;;;3.08;1.17;;;16.10;99.90;;;;;;4936252;29;20024;-86
2023/09/25 08:21:00;;;;;;;3.17;1.33;;;16.20;99.90;;;;;;4932797;29;20039;-85
2023/09/25 08:23:27;;;;;;;4.10;1.58;;;16.30;99.90;;;;;;4951105;29;20027;-86
2023/09/25 08:25:53;;;;;;;6.25;1.27;;;16.30;99.90;;;;;;4937793;29;20575;-85
2023/09/25 08:28:19;;;;;;;2.47;1.10;;;16.40;99.90;;;;;;4937615;29;20058;-87
2023/09/25 08:30:44;;;;;;;4.47;1.05;;;16.50;99.90;;;;;;4932783;29;20059;-88
2023/09/25 08:33:11;;;;;;;4.22;1.20;;;16.50;99.90;;;;;;4919849;29;20128;-87
2023/09/25 08:35:36;;;;;;;4.45;1.50;;;16.50;99.90;;;;;;4920859;29;20476;-87
2023/09/25 08:38:02;;;;;;;4.30;1.00;;;16.60;99.90;;;;;;4933108;29;20024;-87
2023/09/25 08:40:31;;;;;;;2.13;0.82;;;16.70;99.90;;;;;;4935528;29;20083;-87
2023/09/25 08:42:57;;;;;;;2.75;1.42;;;16.70;99.90;;;;;;4935854;29;20032;-88
2023/09/25 08:45:22;;;;;;;6.97;0.98;;;16.90;99.90;;;;;;4937016;29;20522;-88
2023/09/25 08:47:48;;;;;;;2.95;1.20;;;16.90;99.90;;;;;;4937793;29;20023;-87
2023/09/25 08:50:14;;;;;;;2.45;0.90;;;17.00;99.90;;;;;;4936162;29;20178;-88
2023/09/25 08:52:41;;;;;;;4.05;1.38;;;17.10;99.90;;;;;;4935950;29;20032;-87
2023/09/25 08:55:08;;;;;;;2.95;1.10;;;17.20;99.90;;;;;;4927813;29;20028;-87
2023/09/25 08:57:35;;;;;;;3.53;1.52;;;17.30;99.90;;;;;;4931860;29;20519;-88
2023/09/25 09:00:11;;;;;;;3.47;1.30;;;17.50;99.90;;;;;;4951688;28;20043;-86
2023/09/25 09:02:43;;;;;;;2.90;1.40;;;17.70;99.90;;;;;;4927047;29;20028;-87
2023/09/25 09:05:11;;;;;;;4.25;1.13;;;17.80;99.90;;;;;;4935988;29;20060;-86
2023/09/25 09:07:57;;;;;;;2.88;1.10;;;17.90;99.90;;;;;;4936243;29;20122;-87
2023/09/25 09:10:22;;;;;;;2.50;0.95;;;18.00;99.90;;;;;;4950578;29;20373;-87
2023/09/25 09:12:55;;;;;;;2.90;0.82;;;18.00;99.90;;;;;;4952908;28;20031;-87
2023/09/25 09:15:28;;;;;;;5.07;0.93;;;18.10;99.90;;;;;;4936126;29;20063;-87
2023/09/25 09:17:55;;;;;;;4.85;1.23;;;18.10;99.90;;;;;;4949745;29;20047;-87
2023/09/25 09:20:22;;;;;;;2.75;0.73;;;18.10;99.90;;;;;;4934679;29;20122;-87
2023/09/25 09:22:52;;;;;;;4.05;0.90;;;18.20;99.90;;;;;;4942404;28;20024;-87
2023/09/25 09:25:24;;;;;;;1.83;0.70;;;18.30;99.90;;;;;;4941208;28;20119;-88
2023/09/25 09:27:50;;;;;;;2.30;0.77;;;18.30;99.90;;;;;;4924931;29;20039;-87
2023/09/25 09:30:22;;;;;;;3.95;0.70;;;18.30;99.90;;;;;;4948964;29;20114;-89
2023/09/25 09:32:51;;;;;;;3.38;0.77;;;18.30;99.90;;;;;;4936705;29;20030;-87
2023/09/25 09:35:24;;;;;;;4.63;1.00;;;18.30;99.90;;;;;;4937233;28;20040;-88
2023/09/25 09:37:54;;;;;;;2.35;0.85;;;18.40;99.90;;;;;;4927930;29;20115;-87
2023/09/25 09:40:21;;;;;;;1.60;0.70;;;18.50;99.90;;;;;;4930102;29;20035;-88
2023/09/25 09:42:49;;;;;;;3.05;0.70;;;18.60;99.90;;;;;;4936515;29;20054;-87
2023/09/25 09:45:15;;;;;;;2.88;0.93;;;18.60;99.90;;;;;;4935715;29;20031;-87
2023/09/25 09:47:44;;;;;;;4.43;1.20;;;18.70;99.90;;;;;;4948702;28;20028;-87
2023/09/25 09:50:11;;;;;;;1.90;0.60;;;18.80;99.90;;;;;;4950038;28;20471;-87
2023/09/25 09:52:41;;;;;;;3.25;0.70;;;18.80;99.90;;;;;;4937325;28;20038;-86
2023/09/25 09:55:08;;;;;;;2.08;0.60;;;18.90;99.90;;;;;;4933653;29;20019;-87
2023/09/25 09:57:35;;;;;;;1.73;0.70;;;19.00;99.90;;;;;;4949274;29;20027;-87
2023/09/25 10:00:00;;;;;;;2.35;0.65;;;19.00;99.90;;;;;;4937605;29;20027;-88
2023/09/25 10:02:30;;;;;;;3.60;1.27;;;19.00;99.90;;;;;;4934095;29;20042;-87
2023/09/25 10:04:57;;;;;;;2.70;0.70;;;19.10;99.90;;;;;;4919272;29;20032;-87
2023/09/25 10:07:23;;;;;;;1.85;0.50;;;19.20;99.90;;;;;;4947122;28;20032;-87
2023/09/25 10:09:57;;;;;;;1.60;0.60;;;19.30;99.90;;;;;;4943417;29;20076;-87
2023/09/25 10:12:40;;;;;;;2.45;0.80;;;19.20;99.90;;;;;;4950925;28;20554;-86
2023/09/25 10:15:08;;;;;;;2.00;0.50;;;19.30;99.90;;;;;;4928207;29;20047;-86
2023/09/25 10:17:45;;;;;;;2.85;0.63;;;19.30;99.90;;;;;;4939615;29;20048;-87
2023/09/25 10:20:30;;;;;;;3.55;1.00;;;19.40;99.90;;;;;;4936741;28;20044;-87
2023/09/25 10:23:23;;;;;;;3.13;0.93;;;19.40;99.90;;;;;;4950604;28;20474;-87
2023/09/25 10:25:57;;;;;;;2.60;0.60;;;19.60;99.90;;;;;;4932543;29;20016;-87
2023/09/25 10:28:36;;;;;;;2.92;0.90;;;19.60;99.90;;;;;;4934858;29;20551;-87
2023/09/25 10:31:03;;;;;;;1.90;0.70;;;19.70;99.90;;;;;;4934419;29;20075;-87
2023/09/25 10:33:35;;;;;;;2.83;0.70;;;19.80;99.90;;;;;;4945705;28;20128;-87
2023/09/25 10:36:03;;;;;;;3.58;0.82;;;19.90;99.90;;;;;;4939775;28;20481;-87
2023/09/25 10:38:32;;;;;;;2.03;0.85;;;20.00;99.90;;;;;;4933804;29;20082;-87
2023/09/25 10:41:07;;;;;;;2.78;0.60;;;20.00;99.90;;;;;;4944175;29;20079;-86
2023/09/25 10:43:34;;;;;;;2.53;0.82;;;20.00;99.90;;;;;;4949927;29;20031;-86
2023/09/25 10:46:01;;;;;;;2.30;0.80;;;20.00;99.90;;;;;;4931489;29;20539;-86
2023/09/25 10:48:27;;;;;;;3.05;0.82;;;20.00;99.90;;;;;;4946074;28;20036;-86
2023/09/25 10:50:54;;;;;;;2.70;0.90;;;20.00;99.90;;;;;;4925349;29;20060;-85
2023/09/25 10:53:21;;;;;;;4.40;0.98;;;20.10;99.90;;;;;;4943972;29;20028;-86
2023/09/25 10:55:47;;;;;;;2.88;0.70;;;20.10;99.90;;;;;;4946786;29;20476;-86
2023/09/25 10:58:14;;;;;;;2.45;1.00;;;20.10;99.90;;;;;;4929343;29;20027;-87
2023/09/25 11:00:41;;;;;;;3.47;0.90;;;20.00;99.90;;;;;;4934691;29;20039;-86
2023/09/25 11:03:07;;;;;;;5.03;1.13;;;20.10;99.90;;;;;;4933861;29;20064;-86
2023/09/25 11:05:35;;;;;;;1.40;0.77;;;20.20;99.90;;;;;;4935117;29;20093;-86
2023/09/25 11:08:03;;;;;;;3.05;0.85;;;20.20;99.90;;;;;;4934008;29;20432;-86
2023/09/25 11:10:34;;;;;;;4.32;0.93;;;20.30;99.90;;;;;;4933545;29;20019;-87
2023/09/25 11:13:00;;;;;;;3.20;0.75;;;20.30;99.90;;;;;;4929031;29;20039;-86
2023/09/25 11:15:29;;;;;;;2.00;0.70;;;20.40;99.90;;;;;;4933423;29;20028;-86
2023/09/25 11:17:56;;;;;;;3.65;0.80;;;20.50;99.90;;;;;;4934795;29;20134;-86
2023/09/25 11:20:33;;;;;;;3.28;1.13;;;20.50;99.90;;;;;;4932411;29;20179;-86
2023/09/25 11:23:17;;;;;;;3.33;0.60;;;20.50;99.90;;;;;;4932906;29;20503;-86
2023/09/25 11:25:44;;;;;;;5.57;1.08;;;20.60;99.90;;;;;;4933324;29;20118;-85
2023/09/25 11:28:14;;;;;;;3.80;0.90;;;20.60;99.90;;;;;;4934038;29;20086;-86
2023/09/25 11:30:41;;;;;;;2.58;0.80;;;20.70;99.90;;;;;;4933728;29;20031;-86
2023/09/25 11:33:12;;;;;;;3.22;0.90;;;20.80;99.90;;;;;;4932295;29;20099;-86
2023/09/25 11:35:38;;;;;;;2.00;0.80;;;20.90;99.90;;;;;;4954448;28;20043;-86
2023/09/25 11:38:17;;;;;;;3.00;0.88;;;20.90;99.90;;;;;;4936178;29;20031;-86
2023/09/25 11:40:43;;;;;;;2.80;0.93;;;21.10;99.90;;;;;;4937552;29;20047;-85
2023/09/25 11:43:09;;;;;;;3.55;0.75;;;21.20;99.90;;;;;;4924623;29;20062;-85
2023/09/25 11:45:35;;;;;;;2.42;0.60;;;21.20;99.80;;;;;;4933902;29;20399;-85
2023/09/25 11:48:01;;;;;;;1.70;0.70;;;21.30;99.90;;;;;;4924913;29;20025;-86
2023/09/25 11:50:27;;;;;;;3.63;0.70;;;21.40;99.70;;;;;;4923053;29;20400;-86
2023/09/25 11:52:52;;;;;;;2.33;0.65;;;21.50;99.40;;;;;;4932078;29;20035;-87
2023/09/25 11:55:19;;;;;;;2.30;0.60;;;21.40;99.30;;;;;;4937625;28;20122;-87
2023/09/25 11:57:46;;;;;;;3.10;0.60;;;21.40;99.60;;;;;;4936764;29;20027;-85
2023/09/25 12:00:15;;;;;;;5.80;0.70;;;21.40;99.40;;;;;;4937830;29;20039;-86
2023/09/25 12:02:43;;;;;;;4.28;0.80;;;21.40;99.50;;;;;;4942776;29;20412;-86
2023/09/25 12:05:09;;;;;;;3.53;0.77;;;21.50;99.30;;;;;;4936829;29;20036;-86
2023/09/25 12:07:36;;;;;;;3.60;0.70;;;21.60;99.00;;;;;;4937007;29;20113;-87
2023/09/25 12:10:06;;;;;;;2.88;0.85;;;21.70;99.30;;;;;;4936847;29;20389;-86
2023/09/25 12:12:39;;;;;;;3.10;0.80;;;21.70;99.10;;;;;;4937168;29;20441;-86
2023/09/25 12:15:07;;;;;;;2.90;0.70;;;21.60;98.60;;;;;;4937227;29;20102;-86
2023/09/25 12:17:33;;;;;;;2.08;0.68;;;21.60;98.70;;;;;;4935035;29;20123;-86
2023/09/25 12:20:11;;;;;;;2.55;0.90;;;21.60;98.80;;;;;;4927597;29;20488;-86
2023/09/25 12:22:39;;;;;;;2.72;0.45;;;21.50;98.70;;;;;;4930230;29;20047;-87
2023/09/25 12:25:09;;;;;;;2.33;0.52;;;21.60;98.80;;;;;;4929903;29;20051;-86
2023/09/25 12:27:35;;;;;;;2.15;0.60;;;21.70;98.60;;;;;;4931561;29;20119;-87
2023/09/25 12:30:03;;;;;;;3.35;0.82;;;21.80;98.30;;;;;;4943351;28;20034;-87
2023/09/25 12:32:29;;;;;;;2.95;0.60;;;21.80;98.30;;;;;;4935297;29;20043;-87
2023/09/25 12:34:54;;;;;;;3.08;0.68;;;21.90;98.10;;;;;;4933363;29;20036;-88
2023/09/25 12:37:20;;;;;;;2.10;0.75;;;21.90;97.80;;;;;;4935209;29;20369;-87
2023/09/25 12:39:45;;;;;;;6.03;0.70;;;22.00;98.10;;;;;;4935031;29;20248;-87
2023/09/25 12:42:11;;;;;;;4.15;0.90;;;22.00;98.30;;;;;;4935823;29;20099;-87
2023/09/25 12:44:36;;;;;;;5.47;0.80;;;22.00;98.40;;;;;;4935589;29;20507;-88
2023/09/25 12:47:02;;;;;;;3.20;0.68;;;22.00;98.00;;;;;;4947130;28;20034;-88